Time;durP1;ratioP1;P1;durP2;ratioP2;P2;SDS_P1;SDS_P2;PMS_P1;PMS_P2;Temp;Humidity;BMP_temperature;BMP_pressure;BME280_temperature;BME280_humidity;BME280_pressure;Samples;Min_cycle;Max_cycle;Signal;HPM_P1;HPM_P2
2021/12/10 00:00:56;;;;;;;16.30;12.50;;;-12.00;78.30;-13.10;99778.00;;;;4957379;28;92745;-58
2021/12/10 00:03:24;;;;;;;15.40;11.40;;;-12.00;78.40;-13.10;99772.00;;;;4976604;28;93467;-58
2021/12/10 00:06:06;;;;;;;14.40;11.80;;;-12.00;78.50;-13.10;99773.00;;;;4978136;28;93271;-56
2021/12/10 00:08:34;;;;;;;;;;;-12.00;78.50;-13.10;99772.00;;;;4978392;28;91994;-58
2021/12/10 00:11:08;;;;;;;13.13;11.23;;;-12.00;78.50;-13.20;99767.00;;;;4979162;28;94046;-58
2021/12/10 00:13:36;;;;;;;14.02;11.40;;;-12.00;78.50;-13.10;99770.00;;;;4978618;28;92398;-58
2021/12/10 00:16:03;;;;;;;13.85;11.82;;;-12.10;78.50;-13.20;99777.00;;;;4971231;28;92327;-58
2021/12/10 00:18:34;;;;;;;13.77;11.73;;;-12.10;78.40;-13.20;99777.00;;;;4957570;28;92100;-58
2021/12/10 00:21:03;;;;;;;14.70;11.65;;;-12.10;78.50;-13.20;99776.00;;;;4958428;28;93901;-60
2021/12/10 00:23:31;;;;;;;17.80;13.35;;;-12.10;78.70;-13.20;99788.00;;;;4958759;28;92363;-58
2021/12/10 00:26:01;;;;;;;14.65;11.77;;;-12.10;78.70;-13.20;99783.00;;;;4973851;28;92638;-58
2021/12/10 00:28:39;;;;;;;12.95;11.23;;;-12.10;78.80;-13.30;99777.00;;;;4958872;28;92297;-56
2021/12/10 00:31:20;;;;;;;16.67;13.20;;;-12.20;78.60;-13.30;99775.00;;;;4958141;28;93614;-61
2021/12/10 00:34:02;;;;;;;17.50;12.93;;;-12.20;78.60;-13.30;99791.00;;;;4958127;28;93465;-59
2021/12/10 00:36:28;;;;;;;14.90;11.60;;;-12.20;78.70;-13.30;99793.00;;;;4958479;28;92041;-62
2021/12/10 00:38:56;;;;;;;15.63;13.30;;;-12.30;78.70;-13.30;99793.00;;;;4958450;28;92242;-61
2021/12/10 00:41:24;;;;;;;15.43;12.07;;;-12.30;78.80;-13.30;99791.00;;;;4958214;28;92506;-62
2021/12/10 00:43:50;;;;;;;15.27;13.15;;;-12.30;78.90;-13.30;99774.00;;;;4957725;28;92525;-61
2021/12/10 00:46:17;;;;;;;16.60;12.32;;;-12.30;79.00;-13.40;99775.00;;;;4973737;28;92388;-62
2021/12/10 00:48:43;;;;;;;15.07;12.45;;;-12.30;79.10;-13.40;99782.00;;;;4958643;28;91305;-58
2021/12/10 00:51:12;;;;;;;17.42;13.25;;;-12.30;79.10;-13.40;99771.00;;;;4981489;28;93633;-57
2021/12/10 00:53:40;;;;;;;19.20;13.60;;;-12.30;79.10;-13.40;99764.00;;;;4977335;28;92514;-56
2021/12/10 00:56:07;;;;;;;15.07;12.45;;;-12.30;79.30;-13.40;99776.00;;;;4980616;28;92928;-59
2021/12/10 00:58:35;;;;;;;14.48;11.70;;;-12.30;79.40;-13.40;99782.00;;;;4996753;28;92508;-62
2021/12/10 01:01:11;;;;;;;15.00;11.60;;;-12.30;79.30;-13.40;99788.00;;;;4980731;28;93855;-61
2021/12/10 01:03:52;;;;;;;15.48;12.07;;;-12.30;79.40;-13.40;99790.00;;;;4996463;28;92699;-59
2021/12/10 01:06:21;;;;;;;15.13;12.32;;;-12.30;79.30;-13.40;99785.00;;;;4980967;28;92405;-58
2021/12/10 01:08:52;;;;;;;14.75;12.02;;;-12.30;79.30;-13.30;99795.00;;;;4980532;28;91961;-61
2021/12/10 01:11:27;;;;;;;14.43;12.18;;;-12.20;79.90;-13.40;99786.00;;;;4980977;28;92351;-61
2021/12/10 01:14:08;;;;;;;15.25;12.30;;;-12.30;78.90;-13.40;99780.00;;;;4980915;28;93268;-60
2021/12/10 01:25:07;;;;;;;14.30;11.30;;;-12.30;79.30;-13.40;99803.00;;;;4964180;28;92574;-60
2021/12/10 01:27:40;;;;;;;16.48;12.45;;;-12.30;79.20;-13.40;99801.00;;;;4961391;28;92050;-62
2021/12/10 01:30:33;;;;;;;13.88;11.52;;;-12.30;79.20;-13.40;99797.00;;;;4961043;28;92310;-59
2021/12/10 01:33:07;;;;;;;17.02;13.07;;;-12.30;79.10;-13.40;99801.00;;;;4959722;28;93720;-60
2021/12/10 01:35:40;;;;;;;13.45;12.05;;;-12.30;79.00;-13.40;99800.00;;;;4961355;28;92517;-60
2021/12/10 01:38:09;;;;;;;14.63;11.90;;;-12.30;79.00;-13.40;99806.00;;;;4960695;28;92002;-61
2021/12/10 01:40:39;;;;;;;15.23;12.00;;;-12.30;79.20;-13.40;99805.00;;;;4961823;28;91254;-62
2021/12/10 01:43:11;;;;;;;16.23;12.80;;;-12.30;79.10;-13.40;99793.00;;;;4976006;28;95750;-59
2021/12/10 01:45:48;;;;;;;19.20;13.27;;;-12.30;79.10;-13.40;99797.00;;;;4959660;28;93345;-58
2021/12/10 01:48:30;;;;;;;14.57;12.05;;;-12.30;79.00;-13.40;99791.00;;;;4960585;28;93402;-57
2021/12/10 01:50:58;;;;;;;14.35;12.15;;;-12.30;79.00;-13.50;99800.00;;;;4967468;28;92352;-62
2021/12/10 01:53:31;;;;;;;17.10;12.48;;;-12.40;78.90;-13.50;99798.00;;;;4979158;28;92570;-55
2021/12/10 01:56:03;;;;;;;15.38;11.45;;;-12.30;79.20;-13.50;99800.00;;;;4979817;28;92476;-59
2021/12/10 01:58:32;;;;;;;14.77;11.40;;;-12.40;79.20;-13.50;99806.00;;;;4980598;28;91886;-56
2021/12/10 02:01:08;;;;;;;15.65;12.70;;;-12.40;79.20;-13.50;99803.00;;;;4980250;28;91963;-60
2021/12/10 02:03:36;;;;;;;13.45;11.10;;;-12.40;79.10;-13.50;99810.00;;;;4980011;28;92839;-60
2021/12/10 02:06:05;;;;;;;13.20;10.95;;;-12.40;79.10;-13.50;99808.00;;;;4995248;28;91337;-60
2021/12/10 02:08:31;;;;;;;17.00;11.77;;;-12.40;79.00;-13.50;99808.00;;;;4979893;28;91998;-61
2021/12/10 02:10:59;;;;;;;14.25;10.57;;;-12.40;79.00;-13.50;99804.00;;;;4962055;28;92343;-63
2021/12/10 02:13:27;;;;;;;12.05;10.07;;;-12.30;79.20;-13.40;99807.00;;;;4994955;28;95499;-62
2021/12/10 02:15:54;;;;;;;15.43;10.60;;;-12.30;79.00;-13.40;99807.00;;;;4973605;28;93481;-61
2021/12/10 02:18:21;;;;;;;14.85;10.75;;;-12.30;78.90;-13.30;99824.00;;;;4975123;28;92040;-60
2021/12/10 02:21:00;;;;;;;13.70;10.43;;;-12.30;78.60;-13.30;99826.00;;;;4960768;28;92428;-62
2021/12/10 02:23:26;;;;;;;12.55;10.45;;;-12.20;78.60;-13.30;99812.00;;;;4966248;28;92672;-61
2021/12/10 02:25:53;;;;;;;14.48;11.00;;;-12.20;78.50;-13.30;99812.00;;;;4958876;28;93144;-60
2021/12/10 02:28:19;;;;;;;13.60;10.38;;;-12.20;78.20;-13.30;99821.00;;;;4959990;28;91936;-55
2021/12/10 02:30:46;;;;;;;11.95;9.27;;;-12.20;78.00;-13.20;99819.00;;;;4960638;28;91613;-60
2021/12/10 02:33:13;;;;;;;13.43;9.18;;;-12.20;77.90;-13.20;99820.00;;;;4960030;28;92389;-60
2021/12/10 02:35:40;;;;;;;13.13;9.65;;;-12.20;77.80;-13.20;99820.00;;;;4960548;28;92345;-60
2021/12/10 02:38:07;;;;;;;11.77;9.15;;;-12.20;77.70;-13.20;99823.00;;;;4960525;28;92992;-55
2021/12/10 02:40:36;;;;;;;12.57;9.13;;;-12.20;77.60;-13.30;99808.00;;;;4961000;28;92068;-55
2021/12/10 02:43:10;;;;;;;13.13;9.00;;;-12.20;77.70;-13.30;99812.00;;;;4960613;28;93094;-54
2021/12/10 02:45:37;;;;;;;12.65;9.40;;;-12.20;77.60;-13.30;99812.00;;;;4960530;28;92507;-58
2021/12/10 02:48:05;;;;;;;12.15;9.45;;;-12.20;77.50;-13.30;99802.00;;;;4960759;28;92003;-56
2021/12/10 02:50:33;;;;;;;12.23;9.18;;;-12.20;77.40;-13.30;99812.00;;;;4977039;28;92222;-57
2021/12/10 02:53:00;;;;;;;11.73;8.98;;;-12.20;78.20;-13.30;99811.00;;;;4979830;28;92745;-61
2021/12/10 02:55:29;;;;;;;14.70;9.23;;;-12.20;77.30;-13.30;99820.00;;;;4977767;28;91372;-60
2021/12/10 02:58:02;;;;;;;15.30;9.02;;;-12.30;77.20;-13.30;99820.00;;;;4960002;28;92002;-56
2021/12/10 03:00:33;;;;;;;12.90;9.63;;;-12.20;77.30;-13.30;99825.00;;;;4959571;28;92192;-57
2021/12/10 03:03:00;;;;;;;12.15;9.65;;;-12.30;77.30;-13.40;99813.00;;;;4959656;28;93236;-58
2021/12/10 03:05:27;;;;;;;11.45;8.95;;;-12.30;77.30;-13.40;99807.00;;;;4960147;28;93504;-61
2021/12/10 03:07:54;;;;;;;12.85;9.60;;;-12.30;77.50;-13.40;99801.00;;;;4960123;28;92341;-57
2021/12/10 03:10:29;;;;;;;12.90;9.95;;;-12.40;77.40;-13.50;99823.00;;;;4959252;28;92303;-56
2021/12/10 03:12:56;;;;;;;18.00;11.10;;;-12.30;77.50;-13.50;99821.00;;;;4959912;28;92334;-57
2021/12/10 03:15:25;;;;;;;13.18;10.25;;;-12.40;77.40;-13.50;99829.00;;;;4959116;28;93347;-57
2021/12/10 03:17:54;;;;;;;14.10;10.10;;;-12.40;77.50;-13.50;99829.00;;;;4958901;28;91936;-57
2021/12/10 03:20:27;;;;;;;15.05;10.88;;;-12.40;77.50;-13.50;99840.00;;;;4959676;28;91714;-57
2021/12/10 03:22:54;;;;;;;13.77;10.43;;;-12.40;77.60;-13.50;99838.00;;;;4965500;28;93027;-58
2021/12/10 03:25:20;;;;;;;13.05;9.15;;;-12.40;77.60;-13.50;99831.00;;;;4958518;28;93422;-58
2021/12/10 03:27:47;;;;;;;16.67;11.50;;;-12.40;77.80;-13.50;99830.00;;;;4958438;28;93434;-58
2021/12/10 03:30:29;;;;;;;13.93;11.63;;;-12.40;77.70;-13.60;99825.00;;;;4959035;28;92450;-58
2021/12/10 03:32:56;;;;;;;14.30;10.98;;;-12.40;77.80;-13.50;99823.00;;;;4959118;28;92669;-58
2021/12/10 03:35:28;;;;;;;16.45;13.23;;;-12.40;77.80;-13.60;99826.00;;;;4957715;28;93143;-54
2021/12/10 03:37:58;;;;;;;15.43;11.23;;;-12.40;77.70;-13.50;99836.00;;;;4957852;28;92157;-56
2021/12/10 03:40:24;;;;;;;16.15;11.60;;;-12.40;77.80;-13.50;99840.00;;;;4958078;28;92277;-55
2021/12/10 03:42:58;;;;;;;13.25;10.50;;;-12.40;77.70;-13.50;99831.00;;;;4957831;28;92916;-60
2021/12/10 03:45:38;;;;;;;15.27;12.43;;;-12.40;77.50;-13.50;99836.00;;;;4959115;28;91264;-57
2021/12/10 03:48:12;;;;;;;15.65;11.90;;;-12.40;78.10;-13.60;99831.00;;;;4957754;28;92547;-57
2021/12/10 03:50:40;;;;;;;16.13;12.15;;;-12.50;77.50;-13.60;99830.00;;;;4963076;28;92147;-57
2021/12/10 03:53:07;;;;;;;17.50;12.13;;;-12.50;77.50;-13.60;99833.00;;;;4977265;28;93602;-54
2021/12/10 03:55:34;;;;;;;17.70;12.38;;;-12.50;77.50;-13.60;99838.00;;;;4973243;28;93963;-57
2021/12/10 03:58:00;;;;;;;16.20;11.88;;;-12.60;77.30;-13.70;99847.00;;;;4957152;28;92465;-59
2021/12/10 04:00:44;;;;;;;16.52;12.48;;;-12.60;77.60;-13.70;99846.00;;;;4958380;28;92257;-60
2021/12/10 04:03:12;;;;;;;17.45;12.35;;;-12.60;77.70;-13.80;99849.00;;;;4940873;28;93781;-62
2021/12/10 04:05:40;;;;;;;17.83;11.88;;;-12.70;78.00;-13.80;99850.00;;;;4958351;28;92483;-61
2021/12/10 04:08:07;;;;;;;16.45;12.23;;;-12.70;78.00;-13.90;99820.00;;;;4958442;28;92004;-61
2021/12/10 04:10:34;;;;;;;18.10;13.32;;;-12.70;78.20;-13.90;99835.00;;;;4958439;28;91355;-61
2021/12/10 04:13:01;;;;;;;17.25;12.93;;;-12.80;78.20;-13.90;99841.00;;;;4957876;28;93416;-61
2021/12/10 04:15:28;;;;;;;18.23;12.82;;;-12.80;78.30;-13.90;99830.00;;;;4959336;28;92374;-62
2021/12/10 04:17:57;;;;;;;16.58;12.93;;;-12.80;78.40;-14.00;99845.00;;;;4977167;28;93395;-61
2021/12/10 04:20:26;;;;;;;19.00;13.90;;;-12.80;78.60;-14.00;99841.00;;;;4976201;28;92149;-56
2021/12/10 04:22:53;;;;;;;20.55;14.23;;;-12.80;78.90;-14.00;99839.00;;;;4970808;28;92831;-56
2021/12/10 04:25:24;;;;;;;20.30;14.00;;;-12.90;78.60;-14.00;99843.00;;;;4977054;28;92389;-58
2021/12/10 04:27:58;;;;;;;17.38;12.57;;;-12.90;78.80;-14.10;99845.00;;;;4977664;28;92217;-58
2021/12/10 04:30:26;;;;;;;17.27;12.55;;;-12.90;78.80;-14.00;99839.00;;;;4982732;28;92095;-58
2021/12/10 04:32:53;;;;;;;18.38;12.98;;;-12.90;78.90;-14.10;99841.00;;;;4983004;28;92609;-56
2021/12/10 04:35:20;;;;;;;18.27;13.20;;;-12.90;78.90;-14.10;99859.00;;;;4983926;28;94542;-58
2021/12/10 04:37:49;;;;;;;14.05;11.32;;;-12.90;79.10;-14.00;99853.00;;;;4983606;28;92423;-57
2021/12/10 04:40:18;;;;;;;15.32;11.90;;;-12.90;79.50;-14.00;99857.00;;;;4982727;28;92135;-54
2021/12/10 04:42:45;;;;;;;18.23;12.30;;;-12.80;79.80;-14.00;99849.00;;;;4983254;28;94166;-58
2021/12/10 04:45:14;;;;;;;15.07;11.40;;;-12.80;79.70;-13.90;99866.00;;;;4983617;28;93389;-55
2021/12/10 04:47:40;;;;;;;17.45;11.75;;;-12.80;79.40;-13.90;99863.00;;;;4983803;28;91950;-60
2021/12/10 04:50:09;;;;;;;14.73;10.80;;;-12.80;79.20;-13.90;99851.00;;;;4982394;28;92394;-62
2021/12/10 04:52:35;;;;;;;17.38;11.00;;;-12.80;79.20;-13.90;99869.00;;;;4978795;28;93135;-62
2021/12/10 04:55:07;;;;;;;15.43;11.63;;;-12.70;79.10;-13.90;99868.00;;;;4962815;28;92403;-59
2021/12/10 04:57:34;;;;;;;17.95;11.65;;;-12.70;79.00;-13.90;99873.00;;;;4982224;28;92631;-61
2021/12/10 05:00:00;;;;;;;16.55;11.68;;;-12.70;79.00;-13.90;99865.00;;;;4983505;28;91683;-59
2021/12/10 05:02:27;;;;;;;16.13;11.70;;;-12.70;78.90;-13.90;99880.00;;;;4998098;28;93469;-58
2021/12/10 05:04:57;;;;;;;15.30;11.60;;;-12.70;78.60;-13.80;99878.00;;;;4983376;28;92579;-57
2021/12/10 05:07:25;;;;;;;14.82;11.05;;;-12.70;78.60;-13.80;99887.00;;;;4983226;28;92862;-54
2021/12/10 05:09:51;;;;;;;15.60;11.32;;;-12.70;78.50;-13.80;99874.00;;;;4982083;28;92444;-62
2021/12/10 05:12:17;;;;;;;14.48;11.10;;;-12.70;78.50;-13.80;99886.00;;;;4982862;28;92338;-53
2021/12/10 05:14:43;;;;;;;15.70;11.48;;;-12.70;79.20;-13.80;99885.00;;;;4980957;28;93719;-58
2021/12/10 05:17:11;;;;;;;15.70;10.50;;;-12.70;78.80;-13.80;99893.00;;;;4982569;28;92412;-57
2021/12/10 05:19:39;;;;;;;15.50;11.20;;;-12.70;78.30;-13.80;99887.00;;;;4965322;28;92157;-58
2021/12/10 05:22:09;;;;;;;16.63;11.60;;;-12.70;78.20;-13.80;99890.00;;;;4981980;28;92713;-58
2021/12/10 05:24:36;;;;;;;14.20;10.75;;;-12.70;78.20;-13.90;99888.00;;;;4963242;28;92776;-59
2021/12/10 05:27:04;;;;;;;14.15;11.38;;;-12.70;78.20;-13.90;99887.00;;;;4977979;28;93957;-61
2021/12/10 05:29:31;;;;;;;14.70;10.95;;;-12.70;78.20;-13.90;99880.00;;;;4961674;28;92419;-60
2021/12/10 05:31:59;;;;;;;15.45;11.00;;;-12.70;78.30;-13.90;99880.00;;;;4962569;28;93720;-61
2021/12/10 05:34:25;;;;;;;14.77;11.25;;;-12.70;78.30;-13.90;99885.00;;;;4963035;28;93500;-62
2021/12/10 05:36:52;;;;;;;15.68;11.65;;;-12.70;78.30;-13.90;99887.00;;;;4962848;28;92237;-61
2021/12/10 05:39:22;;;;;;;15.38;11.93;;;-12.70;78.30;-13.90;99887.00;;;;4963498;28;91998;-62
2021/12/10 05:41:51;;;;;;;14.73;11.60;;;-12.70;78.40;-13.90;99895.00;;;;4958727;28;92716;-58
2021/12/10 05:44:18;;;;;;;16.45;11.52;;;-12.70;78.20;-13.90;99888.00;;;;4959856;28;92475;-58
2021/12/10 05:46:44;;;;;;;15.30;11.60;;;-12.70;78.20;-13.80;99898.00;;;;4974895;28;92469;-57
2021/12/10 05:49:10;;;;;;;15.38;11.98;;;-12.70;78.20;-13.90;99901.00;;;;4960355;28;91372;-59
2021/12/10 05:51:36;;;;;;;13.82;11.27;;;-12.70;78.20;-13.90;99916.00;;;;4970823;28;92680;-58
2021/12/10 05:54:04;;;;;;;14.98;11.60;;;-12.70;78.10;-13.80;99921.00;;;;4979214;28;92502;-58
2021/12/10 05:56:31;;;;;;;14.32;10.95;;;-12.70;77.90;-13.90;99915.00;;;;4974406;28;93265;-55
2021/12/10 05:58:57;;;;;;;15.07;11.82;;;-12.70;78.00;-13.80;99924.00;;;;4959346;28;92644;-58
2021/12/10 06:01:24;;;;;;;14.05;11.77;;;-12.70;77.90;-13.90;99916.00;;;;4959581;28;92815;-56
2021/12/10 06:03:52;;;;;;;16.33;12.27;;;-12.70;77.80;-13.80;99927.00;;;;4959305;28;92579;-57
2021/12/10 06:06:27;;;;;;;14.20;11.15;;;-12.70;77.80;-13.80;99921.00;;;;4958550;28;92102;-59
2021/12/10 06:08:56;;;;;;;15.75;11.90;;;-12.70;77.60;-13.80;99929.00;;;;4960313;28;92322;-55
2021/12/10 06:11:24;;;;;;;15.25;11.40;;;-12.70;77.60;-13.80;99913.00;;;;4959540;28;92800;-56
2021/12/10 06:13:50;;;;;;;14.43;11.15;;;-12.60;77.60;-13.80;99923.00;;;;4957039;28;92546;-57
2021/12/10 06:16:17;;;;;;;13.55;11.02;;;-12.60;77.60;-13.70;99930.00;;;;4969410;28;92127;-54
2021/12/10 06:18:43;;;;;;;15.88;11.70;;;-12.60;77.40;-13.70;99939.00;;;;4979592;28;92382;-55
2021/12/10 06:21:10;;;;;;;13.38;10.93;;;-12.50;77.50;-13.70;99926.00;;;;4978749;28;94250;-58
2021/12/10 06:23:36;;;;;;;14.52;11.63;;;-12.50;77.30;-13.60;99910.00;;;;4971828;28;93597;-57
2021/12/10 06:26:04;;;;;;;12.35;10.07;;;-12.50;77.20;-13.60;99930.00;;;;4979161;28;91925;-57
2021/12/10 06:28:32;;;;;;;12.75;9.95;;;-12.50;77.00;-13.50;99928.00;;;;4979125;28;92029;-59
2021/12/10 06:30:59;;;;;;;15.23;11.73;;;-12.40;76.90;-13.50;99940.00;;;;4979268;28;92753;-57
2021/12/10 06:33:28;;;;;;;13.98;10.77;;;-12.40;76.70;-13.50;99937.00;;;;4977875;28;92572;-57
2021/12/10 06:35:57;;;;;;;12.88;10.38;;;-12.40;76.40;-13.50;99923.00;;;;4979443;28;92092;-57
2021/12/10 06:38:24;;;;;;;14.63;10.43;;;-12.30;76.30;-13.50;99927.00;;;;4994928;28;91566;-56
2021/12/10 06:40:53;;;;;;;13.15;10.00;;;-12.30;76.00;-13.40;99930.00;;;;4979288;28;92537;-58
2021/12/10 06:43:21;;;;;;;15.15;10.95;;;-12.30;75.90;-13.40;99934.00;;;;4979053;28;92308;-57
2021/12/10 06:45:51;;;;;;;13.60;9.80;;;-12.30;75.90;-13.40;99935.00;;;;4994065;28;93153;-58
2021/12/10 06:48:21;;;;;;;13.10;10.90;;;-12.30;75.90;-13.40;99933.00;;;;4979692;28;92030;-54
2021/12/10 06:51:21;;;;;;;15.82;11.40;;;-12.20;76.00;-13.30;99960.00;;;;4978661;28;93011;-58
2021/12/10 06:53:48;;;;;;;13.05;9.68;;;-12.20;76.00;-13.30;99936.00;;;;4977763;28;92316;-60
2021/12/10 06:56:16;;;;;;;13.27;10.13;;;-12.20;76.00;-13.30;99939.00;;;;4978795;28;92065;-58
2021/12/10 06:58:43;;;;;;;12.90;10.32;;;-12.20;76.00;-13.30;99951.00;;;;4978638;28;92091;-59
2021/12/10 07:01:21;;;;;;;15.70;10.27;;;-12.20;76.00;-13.30;99935.00;;;;4978652;28;92769;-58
2021/12/10 07:03:50;;;;;;;15.25;11.15;;;-12.20;76.00;-13.30;99944.00;;;;4978864;28;92433;-59
2021/12/10 07:06:17;;;;;;;14.55;10.55;;;-12.10;76.70;-13.20;99950.00;;;;4978956;28;92036;-58
2021/12/10 07:08:45;;;;;;;14.98;10.85;;;-12.10;75.70;-13.20;99955.00;;;;4979126;28;92090;-57
2021/12/10 07:11:14;;;;;;;13.07;10.70;;;-12.10;75.60;-13.20;99941.00;;;;4977808;28;93642;-57
2021/12/10 07:13:44;;;;;;;16.17;11.05;;;-12.00;75.50;-13.10;99953.00;;;;4978488;28;93064;-56
2021/12/10 07:16:11;;;;;;;13.98;10.85;;;-12.00;75.30;-13.10;99947.00;;;;4977201;28;92154;-57
2021/12/10 07:18:38;;;;;;;13.75;10.43;;;-12.00;75.10;-13.10;99952.00;;;;4978497;28;92322;-57
2021/12/10 07:21:05;;;;;;;15.68;10.35;;;-11.90;75.10;-13.10;99950.00;;;;4978369;28;92906;-59
2021/12/10 07:23:32;;;;;;;12.82;9.98;;;-11.90;74.80;-13.00;99952.00;;;;4971925;28;92979;-59
2021/12/10 07:25:58;;;;;;;13.20;9.68;;;-11.80;74.60;-12.90;99953.00;;;;4959176;28;92373;-58
2021/12/10 07:28:24;;;;;;;14.07;10.27;;;-11.80;74.50;-12.90;99946.00;;;;4960004;28;92504;-53
2021/12/10 07:30:51;;;;;;;13.63;10.07;;;-11.80;74.20;-12.80;99959.00;;;;4958964;28;92532;-59
2021/12/10 07:33:18;;;;;;;14.77;10.10;;;-11.70;73.90;-12.70;99951.00;;;;4957496;28;94640;-56
2021/12/10 07:35:47;;;;;;;14.73;9.85;;;-11.60;73.80;-12.60;99954.00;;;;4958628;28;92972;-57
2021/12/10 07:38:14;;;;;;;12.27;9.85;;;-11.60;73.40;-12.60;99947.00;;;;4959469;28;92138;-53
2021/12/10 07:40:41;;;;;;;13.95;9.63;;;-11.50;73.10;-12.60;99940.00;;;;4957896;28;92566;-61
2021/12/10 07:43:08;;;;;;;12.18;9.15;;;-11.50;73.10;-12.60;99943.00;;;;4959185;28;92323;-59
2021/12/10 07:45:36;;;;;;;11.38;8.88;;;-11.50;72.90;-12.60;99925.00;;;;4974653;28;92486;-55
2021/12/10 07:48:08;;;;;;;13.68;9.77;;;-11.50;72.70;-12.60;99948.00;;;;4959493;28;92146;-58
2021/12/10 07:50:54;;;;;;;13.27;9.40;;;-11.50;72.80;-12.50;99941.00;;;;4961807;28;92136;-58
2021/12/10 07:53:22;;;;;;;14.23;10.80;;;-11.50;72.70;-12.50;99950.00;;;;4977116;28;93798;-58
2021/12/10 07:55:50;;;;;;;16.90;12.13;;;-11.50;72.70;-12.50;99954.00;;;;4973393;28;92227;-59
2021/12/10 07:58:17;;;;;;;15.52;11.68;;;-11.40;72.70;-12.50;99950.00;;;;4958871;28;92083;-57
2021/12/10 08:00:46;;;;;;;15.90;12.23;;;-11.50;72.50;-12.50;99957.00;;;;4957988;28;93628;-57
2021/12/10 08:03:13;;;;;;;13.50;9.93;;;-11.40;72.60;-12.60;99953.00;;;;4957883;28;93773;-57
2021/12/10 08:05:40;;;;;;;12.13;9.48;;;-11.50;72.40;-12.60;99950.00;;;;4974262;28;91998;-57
2021/12/10 08:08:08;;;;;;;13.23;10.40;;;-11.50;72.60;-12.60;99948.00;;;;4957720;28;92100;-54
2021/12/10 08:10:36;;;;;;;12.85;10.20;;;-11.50;72.70;-12.60;99947.00;;;;4957082;28;94264;-58
2021/12/10 08:13:04;;;;;;;13.10;9.20;;;-11.50;72.70;-12.60;99945.00;;;;4958150;28;92808;-57
2021/12/10 08:15:30;;;;;;;11.02;8.38;;;-11.60;73.00;-12.60;99939.00;;;;4958572;28;92454;-58
2021/12/10 08:17:57;;;;;;;13.95;9.95;;;-11.50;73.10;-12.60;99956.00;;;;4957218;28;91611;-56
2021/12/10 08:20:26;;;;;;;12.73;9.95;;;-11.50;73.10;-12.60;99937.00;;;;4957350;28;95396;-60
2021/12/10 08:22:54;;;;;;;12.98;9.48;;;-11.50;73.00;-12.60;99941.00;;;;4959476;28;92536;-58
2021/12/10 08:25:24;;;;;;;15.20;9.73;;;-11.50;73.10;-12.50;99949.00;;;;4978076;28;92839;-60
2021/12/10 08:27:52;;;;;;;13.27;10.60;;;-11.40;73.20;-12.50;99948.00;;;;4977094;28;92150;-61
2021/12/10 08:30:23;;;;;;;13.90;9.82;;;-11.40;73.20;-12.50;99956.00;;;;4975929;28;93565;-60
2021/12/10 08:32:53;;;;;;;13.85;9.00;;;-11.40;73.10;-12.50;99954.00;;;;4978108;28;92454;-56
2021/12/10 08:35:23;;;;;;;13.85;9.82;;;-11.40;73.00;-12.50;99945.00;;;;4977366;28;92347;-59
2021/12/10 08:37:51;;;;;;;14.25;9.77;;;-11.30;72.90;-12.40;99954.00;;;;4978023;28;92312;-55
2021/12/10 08:40:24;;;;;;;12.90;9.93;;;-11.30;72.90;-12.30;99951.00;;;;4978111;28;92657;-56
2021/12/10 08:42:52;;;;;;;13.57;9.98;;;-11.30;72.80;-12.30;99949.00;;;;4977526;28;92447;-58
2021/12/10 08:45:22;;;;;;;12.90;9.95;;;-11.20;73.10;-12.20;99948.00;;;;4977520;28;92015;-58
2021/12/10 08:47:53;;;;;;;17.80;10.57;;;-11.20;73.10;-12.20;99971.00;;;;4977838;28;92347;-58
2021/12/10 08:50:23;;;;;;;12.70;10.10;;;-11.10;73.30;-12.10;99963.00;;;;4974269;28;94500;-58
2021/12/10 08:52:59;;;;;;;14.02;10.15;;;-11.10;73.20;-12.10;99957.00;;;;4957541;28;93451;-55
2021/12/10 08:55:28;;;;;;;14.02;10.65;;;-11.00;73.20;-12.10;99973.00;;;;4960709;28;91997;-57
2021/12/10 08:57:55;;;;;;;13.27;9.93;;;-11.00;73.60;-12.00;99967.00;;;;4977222;28;92054;-61
2021/12/10 09:00:22;;;;;;;18.23;11.10;;;-10.90;74.30;-11.90;99960.00;;;;4977830;28;92886;-61
2021/12/10 09:02:52;;;;;;;13.07;10.25;;;-10.90;73.30;-11.90;99952.00;;;;4977357;28;92411;-61
2021/12/10 09:05:19;;;;;;;13.25;10.20;;;-10.80;73.20;-11.90;99947.00;;;;4959671;28;92349;-61
2021/12/10 09:07:46;;;;;;;14.13;10.90;;;-10.80;73.10;-11.80;99947.00;;;;4977772;28;91659;-61
2021/12/10 09:10:20;;;;;;;14.93;10.95;;;-10.80;73.00;-11.90;99950.00;;;;4975291;28;93812;-62
2021/12/10 09:12:48;;;;;;;19.83;12.35;;;-10.80;73.00;-11.90;99939.00;;;;4977121;28;93430;-61
2021/12/10 09:15:21;;;;;;;13.95;10.90;;;-10.90;72.70;-11.90;99947.00;;;;4976602;28;93004;-61
2021/12/10 09:17:52;;;;;;;13.85;10.38;;;-10.80;73.00;-11.80;99945.00;;;;4972874;28;92628;-61
2021/12/10 09:20:35;;;;;;;14.20;10.02;;;-10.80;72.70;-11.80;99943.00;;;;4980557;28;93218;-61
2021/12/10 09:23:02;;;;;;;11.65;9.15;;;-10.80;72.40;-11.80;99943.00;;;;4977725;28;92590;-62
2021/12/10 09:25:28;;;;;;;12.55;8.88;;;-10.70;72.20;-11.80;99930.00;;;;4961377;28;92357;-62
2021/12/10 09:27:55;;;;;;;12.40;9.15;;;-10.80;72.10;-11.80;99939.00;;;;4961335;28;92014;-62
2021/12/10 09:30:25;;;;;;;14.70;9.63;;;-10.70;72.20;-11.70;99953.00;;;;4961192;28;92629;-62
2021/12/10 09:32:51;;;;;;;13.15;9.65;;;-10.70;72.20;-11.60;99950.00;;;;4960686;28;92615;-62
2021/12/10 09:35:21;;;;;;;14.57;9.63;;;-10.60;72.10;-11.60;99944.00;;;;4961788;28;91959;-62
2021/12/10 09:37:48;;;;;;;12.93;9.60;;;-10.60;71.70;-11.60;99945.00;;;;4961598;28;92502;-61
2021/12/10 09:40:25;;;;;;;11.95;9.30;;;-10.50;71.30;-11.60;99940.00;;;;4960796;28;93716;-62
2021/12/10 09:42:53;;;;;;;12.85;9.88;;;-10.50;71.10;-11.50;99941.00;;;;4961065;28;93251;-61
2021/12/10 09:45:23;;;;;;;11.63;9.30;;;-10.40;71.10;-11.40;99960.00;;;;4960995;28;91826;-61
2021/12/10 09:47:51;;;;;;;12.50;8.63;;;-10.40;71.00;-11.30;99949.00;;;;4960047;28;92489;-61
2021/12/10 09:50:21;;;;;;;10.98;8.65;;;-10.30;71.50;-11.30;99948.00;;;;4960483;28;92814;-60
2021/12/10 09:52:48;;;;;;;12.05;9.15;;;-10.30;70.40;-11.30;99959.00;;;;4960715;28;92347;-60
2021/12/10 09:55:16;;;;;;;13.30;9.43;;;-10.30;69.80;-11.20;99955.00;;;;4961551;28;92341;-60
2021/12/10 09:57:45;;;;;;;11.70;9.18;;;-10.20;69.90;-11.20;99950.00;;;;4980783;28;91473;-57
2021/12/10 10:00:21;;;;;;;12.07;10.15;;;-10.20;70.60;-11.10;99963.00;;;;4979958;28;93196;-56
2021/12/10 10:02:48;;;;;;;13.43;9.75;;;-10.10;69.50;-11.10;99954.00;;;;4979958;28;92319;-55
2021/12/10 10:05:14;;;;;;;13.35;10.10;;;-10.00;69.80;-11.00;99968.00;;;;4978774;28;93220;-55
2021/12/10 10:07:41;;;;;;;13.55;10.25;;;-10.10;69.40;-11.00;99963.00;;;;4979759;28;91948;-52
2021/12/10 10:10:15;;;;;;;12.32;9.70;;;-10.00;69.60;-11.00;99964.00;;;;4978903;28;92748;-58
2021/12/10 10:12:46;;;;;;;14.60;10.98;;;-10.00;69.10;-11.00;99961.00;;;;4979871;28;92465;-59
2021/12/10 10:15:18;;;;;;;12.50;9.68;;;-10.00;69.00;-11.00;99960.00;;;;4979416;28;91940;-59
2021/12/10 10:17:45;;;;;;;13.35;9.98;;;-10.00;69.30;-11.00;99962.00;;;;4980462;28;91954;-57
2021/12/10 10:20:13;;;;;;;12.15;9.60;;;-10.00;69.60;-10.90;99970.00;;;;4979047;28;92457;-55
2021/12/10 10:22:40;;;;;;;11.85;9.02;;;-10.00;69.40;-10.90;99984.00;;;;4989730;28;93146;-58
2021/12/10 10:25:11;;;;;;;12.95;9.93;;;-10.00;69.40;-10.90;99980.00;;;;4979463;28;92512;-56
2021/12/10 10:27:40;;;;;;;12.48;9.85;;;-10.00;69.20;-10.90;99995.00;;;;4977924;28;92415;-60
2021/12/10 10:30:16;;;;;;;13.25;9.90;;;-10.00;69.30;-11.00;99985.00;;;;4979164;28;94141;-57
2021/12/10 10:32:47;;;;;;;12.93;10.15;;;-10.00;69.40;-10.90;99979.00;;;;4978584;28;93285;-58
2021/12/10 10:35:22;;;;;;;12.32;9.13;;;-9.90;69.80;-11.00;99986.00;;;;4978314;28;92533;-57
2021/12/10 10:37:50;;;;;;;14.75;10.43;;;-10.00;69.90;-10.90;99989.00;;;;4979928;28;92476;-59
2021/12/10 10:40:27;;;;;;;14.63;10.38;;;-10.00;70.20;-10.90;99986.00;;;;4979004;28;92873;-56
2021/12/10 10:42:53;;;;;;;12.10;9.93;;;-9.90;70.20;-10.90;99992.00;;;;4978760;28;94384;-56
2021/12/10 10:45:25;;;;;;;12.77;10.05;;;-9.90;70.20;-10.90;99991.00;;;;4979876;28;92312;-57